Amatorska stacja pogodowa orzepowice24.pl
Bogaty zestaw statystyk w zakładce „DOKŁADNE STATYSTYKI”

Visit our other weather sites:

Template documentation
and downloads

SZCZEGÓŁOWE STATYSTYKI

weather34-X5


You find our weather info also at:

UK Metoffice

WeatherCloud

Weather Underground

AWEKAS

WeatherlinkIP

Citizen Weather Observer Program (CWOP)

HAMweather, WeatherForYou, PWS Weather


No particular awareness of the weather is required.    There are no Weather-warnings

Raporty METAR w pobliżu

   
EPKT - Katowice
Zaktualizowano: 19-04-2018 19:30
Bezchmurne niebo  
Bezchmurne niebo  
   Wiatr: Północ 18.5 km/h
Wiatr: Północ 18.5 km/h
Temperatura: 19°C
Punkt rosy: 8°C
Wilgotność: 49%
Ciśnienie: 1027 hPa
Widoczność: Więcej niż 10 km
Szczegóły dotyczące chmur: Bezchmurne niebo
EPKT 191730Z 35010KT CAVOK 19/08 Q1027
EPKK - Kraków
Zaktualizowano: 19-04-2018 19:30
Bezchmurne niebo  
Bezchmurne niebo  
   Wiatr: NNW 18.5 km/h
Wiatr: NNW 18.5 km/h
Temperatura: 20°C
Punkt rosy: 8°C
Wilgotność: 46%
Ciśnienie: 1027 hPa
Widoczność: Więcej niż 10 km
Szczegóły dotyczące chmur: Bezchmurne niebo
EPKK 191730Z 34010KT 290V360 CAVOK 20/08 Q1027
LKMT - Ostrava
Zaktualizowano: 19-04-2018 19:30
Bezchmurne niebo  
Bezchmurne niebo  
   Wiatr: Północ 11.1 km/h
Wiatr: Północ 11.1 km/h
Temperatura: 19°C
Punkt rosy: 10°C
Wilgotność: 56%
Ciśnienie: 1027 hPa
Widoczność: Więcej niż 10 km
Szczegóły dotyczące chmur: Bezchmurne niebo
LKMT 191730Z 35006KT CAVOK 19/10 Q1027 NOSIG
LZZI - Žilina
Zaktualizowano: 19-04-2018 19:30
Bezchmurne niebo  
Bezchmurne niebo  
   Wiatr: NNE 5.6 km/h
Wiatr: NNE 5.6 km/h
Temperatura: 21°C
Punkt rosy: 9°C
Wilgotność: 46%
Ciśnienie: 1027 hPa
Widoczność: Więcej niż 10 km
Szczegóły dotyczące chmur: Bezchmurne niebo
LZZI 191730Z 02003KT 330V070 CAVOK 21/09 Q1027
  

Skrypt opracowany przez  Saratoga-weather.org Dostosowany do szablonu przez  Weerstation Leuven